Swygert, Illinois
Current Conditions -  °F | °C
As of 8:55 AM on Monday 22 Dec 2014 (Local Time) from KPNT Reporting Station
Unknown Precip Unknown Precip  
Wind Chill: 24°   Ceiling: 4800
Heat Index: 34°   Visibility: 4mi
Dew Point: 32°   Wind: 14mph
Humidity: 93%   Direction: 120°ESE
Pressure: 29.87"   Gusts: NA
Location:  40.8602°N, 88.6284°W
Report Text: KPNT 221455Z AUTO 12012KT 4SM UP BKN048 OVC050 01/00 A2987 RMK AO2 T00100000
Loading
Personal Weather Stations






























Interactive Weather Map New forecast layout! Learn more

10-Day Weather Forecast

Advertisements
Track Severe Weather on mobile